createdAt,value
2023-01-27T00:02:38.501Z,2.03
2023-01-27T00:05:14.276Z,1.77
2023-01-27T00:08:05.283Z,1.55
2023-01-27T00:10:48.075Z,1.39
2023-01-27T00:13:36.074Z,1.25
2023-01-27T00:16:20.125Z,1.84
2023-01-27T00:19:15.065Z,5.02
2023-01-27T00:22:22.073Z,7.32
2023-01-27T00:24:56.246Z,6.73
2023-01-27T00:27:44.067Z,5.34
2023-01-27T00:30:20.204Z,4.32
2023-01-27T00:33:26.068Z,3.64
2023-01-27T00:36:06.420Z,3.14
2023-01-27T00:38:56.271Z,2.78
2023-01-27T00:41:38.228Z,2.46
2023-01-27T00:44:20.071Z,2.22
2023-01-27T00:47:08.271Z,1.99
2023-01-27T00:49:50.273Z,1.76
2023-01-27T00:52:40.062Z,1.57
2023-01-27T00:55:16.186Z,2.18
2023-01-27T00:58:04.279Z,5.21
2023-01-27T01:00:46.266Z,7.16
2023-01-27T01:03:42.076Z,6.53
2023-01-27T01:06:30.116Z,5.03
2023-01-27T01:09:13.276Z,4.10
2023-01-27T01:12:09.052Z,3.43
2023-01-27T01:14:57.271Z,2.87
2023-01-27T01:17:32.201Z,2.48
2023-01-27T01:20:20.051Z,2.17
2023-01-27T01:22:54.197Z,1.89
2023-01-27T01:25:42.056Z,1.64
2023-01-27T01:28:17.201Z,1.43
2023-01-27T01:31:12.097Z,1.23
2023-01-27T01:33:47.211Z,1.07
2023-01-27T01:36:35.258Z,1.52
2023-01-27T01:39:17.385Z,4.55
2023-01-27T01:42:06.059Z,6.78
2023-01-27T01:44:48.051Z,6.98
2023-01-27T01:47:43.255Z,5.55
2023-01-27T01:50:31.250Z,4.36
2023-01-27T01:53:08.258Z,3.67
2023-01-27T01:55:57.262Z,3.14
2023-01-27T02:01:38.258Z,2.38
2023-01-27T02:04:38.033Z,2.01
2023-01-27T02:07:38.058Z,2.14
2023-01-27T02:10:13.447Z,5.05
2023-01-27T02:13:01.070Z,7.02
2023-01-27T02:15:44.053Z,6.24
2023-01-27T02:18:40.047Z,4.83
2023-01-27T02:21:28.075Z,3.82
2023-01-27T02:24:19.069Z,3.22
2023-01-27T02:27:14.069Z,2.71
2023-01-27T02:30:02.066Z,2.32
2023-01-27T02:32:44.058Z,2.03
2023-01-27T02:35:45.037Z,1.75
2023-01-27T02:38:33.067Z,1.50
2023-01-27T02:41:25.042Z,1.67
2023-01-27T02:44:07.403Z,4.84
2023-01-27T02:46:49.071Z,7.00
2023-01-27T02:49:30.164Z,7.49
2023-01-27T02:52:11.263Z,6.05
2023-01-27T02:54:53.243Z,4.65
2023-01-27T02:57:34.036Z,3.81
2023-01-27T03:00:18.365Z,3.16
2023-01-27T03:03:06.236Z,2.66
2023-01-27T03:05:49.245Z,2.25
2023-01-27T03:08:44.041Z,1.88
2023-01-27T03:11:50.055Z,1.53
2023-01-27T03:14:49.588Z,1.24
2023-01-27T03:17:50.047Z,1.04
2023-01-27T03:20:32.381Z,0.86
2023-01-27T03:23:14.019Z,1.09
2023-01-27T03:26:09.187Z,4.04
2023-01-27T03:29:17.120Z,6.52
2023-01-27T03:31:59.093Z,6.38
2023-01-27T03:34:54.033Z,4.88
2023-01-27T03:38:01.052Z,3.80
2023-01-27T03:41:01.031Z,3.07
2023-01-27T03:44:08.037Z,2.52
2023-01-27T03:46:43.175Z,2.10
2023-01-27T03:49:31.056Z,1.77
2023-01-27T03:52:06.187Z,1.49
2023-01-27T03:54:54.023Z,1.22
2023-01-27T03:57:28.170Z,0.99
2023-01-27T04:00:17.029Z,1.77
2023-01-27T04:03:18.036Z,4.84
2023-01-27T04:06:38.030Z,6.47
2023-01-27T04:09:27.114Z,4.94
2023-01-27T04:12:03.175Z,3.83
2023-01-27T04:14:51.033Z,3.10
2023-01-27T04:17:33.030Z,2.60
2023-01-27T04:20:28.099Z,2.18
2023-01-27T04:23:16.140Z,1.80
2023-01-27T04:25:54.551Z,1.48
2023-01-27T04:28:44.585Z,1.23
2023-01-27T04:31:33.129Z,0.99
2023-01-27T04:34:07.767Z,0.83
2023-01-27T04:36:56.058Z,2.60
2023-01-27T04:39:30.477Z,5.55
2023-01-27T04:42:19.023Z,6.85
2023-01-27T04:44:53.453Z,5.59
2023-01-27T04:47:41.077Z,4.28
2023-01-27T04:50:22.027Z,3.40
2023-01-27T04:53:03.239Z,2.79
2023-01-27T04:55:44.098Z,2.36
2023-01-27T04:58:25.174Z,1.98
2023-01-27T05:01:07.069Z,1.70
2023-01-27T05:03:48.251Z,1.46
2023-01-27T05:06:31.007Z,1.26
2023-01-27T05:09:19.030Z,1.05
2023-01-27T05:12:00.020Z,0.87
2023-01-27T05:14:41.151Z,1.25
2023-01-27T05:17:22.027Z,4.08
2023-01-27T05:20:03.307Z,6.61
2023-01-27T05:22:45.100Z,6.92
2023-01-27T05:25:33.034Z,5.42
2023-01-27T05:28:08.475Z,4.23
2023-01-27T05:30:56.136Z,3.44
2023-01-27T05:33:51.111Z,2.86
2023-01-27T05:36:46.033Z,2.37
2023-01-27T05:39:34.015Z,1.94
2023-01-27T05:42:09.183Z,1.64
2023-01-27T05:44:57.016Z,1.38
2023-01-27T05:47:32.161Z,1.15
2023-01-27T05:50:20.095Z,0.96
2023-01-27T05:53:02.091Z,1.61
2023-01-27T05:55:51.046Z,4.73
2023-01-27T05:58:26.303Z,6.66
2023-01-27T06:01:20.003Z,5.88
2023-01-27T06:03:55.140Z,4.45
2023-01-27T06:06:42.985Z,3.46
2023-01-27T06:09:18.167Z,2.76
2023-01-27T06:12:06.106Z,2.23
2023-01-27T06:14:41.147Z,1.82
2023-01-27T06:17:29.074Z,1.46
2023-01-27T06:20:04.186Z,1.32
2023-01-27T06:22:52.045Z,3.57
2023-01-27T06:25:27.120Z,6.10
2023-01-27T06:28:29.999Z,7.06
2023-01-27T06:31:13.802Z,5.73
2023-01-27T06:34:03.073Z,4.31
2023-01-27T06:36:44.046Z,3.34
2023-01-27T06:39:25.123Z,2.65
2023-01-27T06:42:07.017Z,2.14
2023-01-27T06:44:54.992Z,1.69
2023-01-27T06:47:36.029Z,1.33
2023-01-27T06:50:25.099Z,1.81
2023-01-27T06:53:01.652Z,4.60
2023-01-27T06:55:51.995Z,6.64
2023-01-27T06:58:33.045Z,6.18
2023-01-27T07:01:14.258Z,4.59
2023-01-27T07:03:55.984Z,3.58
2023-01-27T07:06:43.994Z,2.83
2023-01-27T07:09:18.463Z,2.29
2023-01-27T07:12:06.087Z,1.84
2023-01-27T07:14:40.508Z,1.47
2023-01-27T07:17:28.034Z,1.17
2023-01-27T07:20:09.124Z,1.02
2023-01-27T07:22:57.254Z,3.08
2023-01-27T07:25:33.923Z,5.66
2023-01-27T07:28:22.979Z,6.30
2023-01-27T07:31:18.154Z,4.91
2023-01-27T07:34:06.027Z,3.66
2023-01-27T07:36:48.025Z,2.84
2023-01-27T07:39:36.065Z,2.24
2023-01-27T07:42:12.246Z,1.84
2023-01-27T07:45:00.004Z,1.52
2023-01-27T07:47:35.299Z,1.29
2023-01-27T07:50:23.972Z,1.23
2023-01-27T07:52:59.189Z,3.49
2023-01-27T07:55:47.022Z,6.09
2023-01-27T07:58:22.162Z,6.88
2023-01-27T08:01:13.104Z,5.66
2023-01-27T08:03:48.208Z,4.33
2023-01-27T08:06:38.024Z,3.49
2023-01-27T08:09:19.992Z,2.93
2023-01-27T08:12:08.017Z,2.48
2023-01-27T08:14:56.065Z,2.17
2023-01-27T08:17:42.163Z,1.94
2023-01-27T08:20:26.121Z,1.75
2023-01-27T08:23:06.964Z,2.04
2023-01-27T08:25:48.143Z,4.90
2023-01-27T08:28:29.957Z,7.00
2023-01-27T08:31:13.180Z,6.83
2023-01-27T08:33:58.973Z,5.49
2023-01-27T08:36:40.229Z,4.38
2023-01-27T08:39:22.025Z,3.70
2023-01-27T08:42:04.279Z,3.21
2023-01-27T08:44:46.015Z,2.86
2023-01-27T08:47:27.423Z,2.54
2023-01-27T08:50:11.117Z,2.31
2023-01-27T08:52:59.181Z,2.13
2023-01-27T08:55:34.426Z,2.99
2023-01-27T08:58:22.165Z,5.87
2023-01-27T09:01:03.719Z,7.16
2023-01-27T09:03:53.215Z,6.10
2023-01-27T09:06:34.997Z,4.95
2023-01-27T09:09:22.979Z,4.15
2023-01-27T09:12:04.176Z,3.63
2023-01-27T09:14:53.155Z,3.25
2023-01-27T09:17:28.595Z,2.94
2023-01-27T09:20:17.958Z,2.64
2023-01-27T09:23:01.951Z,2.42
2023-01-27T09:25:50.153Z,2.24
2023-01-27T09:28:31.961Z,2.67
2023-01-27T09:31:20.245Z,5.73
2023-01-27T09:33:56.986Z,7.57
2023-01-27T09:36:50.949Z,6.63
2023-01-27T09:39:33.443Z,5.43
2023-01-27T09:42:37.081Z,4.54
2023-01-27T09:45:17.976Z,3.88
2023-01-27T09:48:21.081Z,3.47
2023-01-27T09:51:10.949Z,3.13
2023-01-27T09:54:04.280Z,2.87
2023-01-27T09:57:07.965Z,2.68
2023-01-27T10:00:06.076Z,2.88
2023-01-27T10:02:46.359Z,5.71
2023-01-27T10:06:06.137Z,7.25
2023-01-27T10:09:07.160Z,5.95
2023-01-27T10:12:14.151Z,4.79
2023-01-27T10:15:10.783Z,4.10
2023-01-27T10:18:09.057Z,3.62
2023-01-27T10:21:45.629Z,3.28
2023-01-27T10:24:58.860Z,2.97
2023-01-27T10:28:00.938Z,3.68
2023-01-27T10:31:05.075Z,6.63
2023-01-27T10:34:05.163Z,6.87
2023-01-27T10:37:14.203Z,5.45
2023-01-27T10:40:13.178Z,4.42
2023-01-27T10:42:55.065Z,3.85
2023-01-27T10:45:45.017Z,3.50
2023-01-27T10:48:43.887Z,3.21
2023-01-27T10:51:39.947Z,4.41
2023-01-27T10:54:22.267Z,7.40
2023-01-27T10:57:14.933Z,8.38
2023-01-27T11:00:37.898Z,7.15
2023-01-27T11:03:30.967Z,5.71
2023-01-27T11:06:28.959Z,4.84
2023-01-27T11:09:37.943Z,4.22
2023-01-27T11:12:14.355Z,3.75
2023-01-27T11:15:04.927Z,3.40
2023-01-27T11:17:54.926Z,3.81
2023-01-27T11:20:50.203Z,6.73
2023-01-27T11:23:38.021Z,7.70
2023-01-27T11:26:43.920Z,6.40
2023-01-27T11:29:45.023Z,5.23
2023-01-27T11:32:47.958Z,4.46
2023-01-27T11:35:35.952Z,3.89
2023-01-27T11:38:17.921Z,3.56
2023-01-27T11:41:14.947Z,4.91
2023-01-27T11:44:02.914Z,7.42
2023-01-27T11:46:39.264Z,6.90
2023-01-27T11:49:40.918Z,5.70
2023-01-27T11:52:20.062Z,4.70
2023-01-27T11:55:34.917Z,4.12
2023-01-27T11:58:20.043Z,3.64
2023-01-27T12:01:07.917Z,3.31
2023-01-27T12:04:27.325Z,3.70
2023-01-27T12:07:36.908Z,7.04
2023-01-27T12:10:39.918Z,8.03
2023-01-27T12:13:39.933Z,6.59
2023-01-27T12:16:30.905Z,5.42
2023-01-27T12:19:11.066Z,4.69
2023-01-27T12:22:02.925Z,4.13
2023-01-27T12:24:41.038Z,3.73
2023-01-27T12:27:37.927Z,3.41
2023-01-27T12:30:41.069Z,3.80
2023-01-27T12:33:38.915Z,6.93
2023-01-27T12:36:25.038Z,8.21
2023-01-27T12:39:15.109Z,6.89
2023-01-27T12:41:50.242Z,5.63
2023-01-27T12:44:49.911Z,4.78
2023-01-27T12:47:33.045Z,4.20
2023-01-27T12:50:41.919Z,3.73
2023-01-27T12:53:33.914Z,3.31
2023-01-27T12:56:34.894Z,3.00
2023-01-27T12:59:25.976Z,3.44
2023-01-27T13:02:09.094Z,6.11
2023-01-27T13:05:06.922Z,7.03
2023-01-27T13:08:00.118Z,5.76
2023-01-27T13:10:57.134Z,4.71
2023-01-27T13:13:34.025Z,4.00
2023-01-27T13:16:25.014Z,3.53
2023-01-27T13:19:10.907Z,3.18
2023-01-27T13:22:02.098Z,3.46
2023-01-27T13:24:53.910Z,6.16
2023-01-27T13:27:52.894Z,6.92
2023-01-27T13:30:52.497Z,5.71
2023-01-27T13:33:44.911Z,4.54
2023-01-27T13:36:30.904Z,3.86
2023-01-27T13:39:25.905Z,3.34
2023-01-27T13:42:53.585Z,2.98
2023-01-27T13:45:51.897Z,2.67
2023-01-27T13:48:32.240Z,4.44
2023-01-27T13:51:29.896Z,7.10
2023-01-27T13:54:19.288Z,7.44
2023-01-27T13:57:28.011Z,5.91
2023-01-27T14:00:18.351Z,4.67
2023-01-27T14:03:41.903Z,3.89
2023-01-27T14:06:32.019Z,3.22
2023-01-27T14:09:32.956Z,2.77
2023-01-27T14:12:32.943Z,2.44
2023-01-27T14:15:33.451Z,2.96
2023-01-27T14:18:29.207Z,5.88
2023-01-27T14:21:40.228Z,7.12
2023-01-27T14:24:50.329Z,5.62
2023-01-27T14:27:32.996Z,4.56
2023-01-27T14:30:22.882Z,3.86
2023-01-27T14:33:29.178Z,3.36
2023-01-27T14:36:31.250Z,2.87
2023-01-27T14:39:29.080Z,2.51
2023-01-27T14:42:44.095Z,2.85
2023-01-27T14:46:03.874Z,5.92
2023-01-27T14:49:04.584Z,6.26
2023-01-27T14:52:11.876Z,4.85
2023-01-27T14:55:19.158Z,3.80
2023-01-27T14:58:44.999Z,3.03
2023-01-27T15:01:27.084Z,2.46
2023-01-27T15:04:29.081Z,2.10
2023-01-27T15:07:31.130Z,1.76
2023-01-27T15:10:24.928Z,1.49
2023-01-27T15:13:23.063Z,1.30
2023-01-27T15:16:26.930Z,3.33
2023-01-27T15:19:38.892Z,5.15
2023-01-27T15:22:45.871Z,4.04
2023-01-27T15:25:44.574Z,3.05
2023-01-27T15:28:21.008Z,2.42
2023-01-27T15:31:21.039Z,2.01
2023-01-27T15:34:04.245Z,1.67
2023-01-27T15:36:46.870Z,1.42
2023-01-27T15:39:40.383Z,1.25
2023-01-27T15:42:29.646Z,1.06
2023-01-27T15:45:12.458Z,0.93
2023-01-27T15:47:53.880Z,2.42
2023-01-27T15:50:53.038Z,5.17
2023-01-27T15:53:38.409Z,5.29
2023-01-27T15:56:20.073Z,4.07
2023-01-27T15:59:13.874Z,3.15
2023-01-27T16:02:19.909Z,2.52
2023-01-27T16:05:23.042Z,2.01
2023-01-27T16:08:09.893Z,1.70
2023-01-27T16:10:52.132Z,1.46
2023-01-27T16:13:36.278Z,1.28
2023-01-27T16:16:24.644Z,1.12
2023-01-27T16:19:28.881Z,0.99
2023-01-27T16:22:13.049Z,1.75
2023-01-27T16:25:06.445Z,4.67
2023-01-27T16:28:13.968Z,6.27
2023-01-27T16:31:15.930Z,4.91
2023-01-27T16:33:59.218Z,3.77
2023-01-27T16:36:49.902Z,3.09
2023-01-27T16:39:48.430Z,2.63
2023-01-27T16:42:48.085Z,2.23
2023-01-27T16:45:27.437Z,1.93
2023-01-27T16:48:20.853Z,1.71
2023-01-27T16:51:12.963Z,1.48
2023-01-27T16:54:05.859Z,1.24
2023-01-27T16:56:48.295Z,1.05
2023-01-27T16:59:41.897Z,1.20
2023-01-27T17:02:22.683Z,4.00
2023-01-27T17:05:18.884Z,5.95
2023-01-27T17:08:24.475Z,5.34
2023-01-27T17:11:39.908Z,3.90
2023-01-27T17:14:49.872Z,2.90
2023-01-27T17:17:40.919Z,2.24
2023-01-27T17:20:15.983Z,1.81
2023-01-27T17:23:04.099Z,1.44
2023-01-27T17:25:42.151Z,1.18
2023-01-27T17:28:39.949Z,0.95
2023-01-27T17:31:36.300Z,1.07
2023-01-27T17:34:27.237Z,3.75
2023-01-27T17:37:20.027Z,5.28
2023-01-27T17:40:13.070Z,4.09
2023-01-27T17:42:56.828Z,3.00
2023-01-27T17:45:46.905Z,2.27
2023-01-27T17:48:22.014Z,1.75
2023-01-27T17:51:09.857Z,1.36
2023-01-27T17:53:46.177Z,1.04
2023-01-27T17:56:39.938Z,0.79
2023-01-27T17:59:21.037Z,0.59
2023-01-27T18:02:42.874Z,0.67
2023-01-27T18:05:26.256Z,3.68
2023-01-27T18:08:19.856Z,5.47
2023-01-27T18:11:02.870Z,4.42
2023-01-27T18:13:55.917Z,3.28
2023-01-27T18:16:38.016Z,2.52
2023-01-27T18:19:36.011Z,1.95
2023-01-27T18:22:25.860Z,1.53
2023-01-27T18:25:14.981Z,1.23
2023-01-27T18:28:00.717Z,0.95
2023-01-27T18:30:50.323Z,0.75
2023-01-27T18:33:28.144Z,0.57
2023-01-27T18:36:20.046Z,1.60
2023-01-27T18:38:56.691Z,4.58
2023-01-27T18:41:45.825Z,5.82
2023-01-27T18:44:27.816Z,4.67
2023-01-27T18:47:36.030Z,3.45
2023-01-27T18:50:20.937Z,2.50
2023-01-27T18:53:09.005Z,1.93
2023-01-27T18:55:44.396Z,1.47
2023-01-27T18:58:32.036Z,1.10
2023-01-27T19:01:24.826Z,0.83
2023-01-27T19:04:05.979Z,1.44
2023-01-27T19:06:53.908Z,4.39
2023-01-27T19:09:35.863Z,6.00
2023-01-27T19:12:25.890Z,4.93
2023-01-27T19:15:01.246Z,3.72
2023-01-27T19:17:50.812Z,2.84
2023-01-27T19:20:28.475Z,2.23
2023-01-27T19:23:21.249Z,1.79
2023-01-27T19:26:01.206Z,1.42
2023-01-27T19:29:05.292Z,1.13
2023-01-27T19:32:01.906Z,0.88
2023-01-27T19:34:49.863Z,1.70
2023-01-27T19:37:34.485Z,4.75
2023-01-27T19:40:48.468Z,6.06
2023-01-27T19:43:31.420Z,4.62
2023-01-27T19:46:26.346Z,3.49
2023-01-27T19:49:06.503Z,2.74
2023-01-27T19:51:55.009Z,2.22
2023-01-27T19:54:30.635Z,1.87
2023-01-27T19:57:24.863Z,1.54
2023-01-27T20:00:01.320Z,1.24
2023-01-27T20:02:48.850Z,1.74
2023-01-27T20:05:24.141Z,4.72
2023-01-27T20:08:17.037Z,6.30
2023-01-27T20:10:59.016Z,5.21
2023-01-27T20:13:46.872Z,3.82
2023-01-27T20:16:31.187Z,2.96
2023-01-27T20:19:21.803Z,2.31
2023-01-27T20:21:59.054Z,1.86
2023-01-27T20:24:46.799Z,1.51
2023-01-27T20:27:21.162Z,1.21
2023-01-27T20:30:18.133Z,0.96
2023-01-27T20:33:16.023Z,0.75
2023-01-27T20:36:04.883Z,2.25
2023-01-27T20:38:43.977Z,5.36
2023-01-27T20:41:32.803Z,6.63
2023-01-27T20:44:15.861Z,5.36
2023-01-27T20:47:04.026Z,3.98
2023-01-27T20:49:46.122Z,3.04
2023-01-27T20:52:28.975Z,2.43
2023-01-27T20:55:14.181Z,1.93
2023-01-27T20:57:57.815Z,1.56
2023-01-27T21:00:46.563Z,1.18
2023-01-27T21:03:30.154Z,0.93
2023-01-27T21:06:14.185Z,2.69
2023-01-27T21:08:55.795Z,5.31
2023-01-27T21:11:38.170Z,6.29
2023-01-27T21:14:19.989Z,5.05
2023-01-27T21:17:02.114Z,3.70
2023-01-27T21:19:44.916Z,2.87
2023-01-27T21:22:26.340Z,2.20
2023-01-27T21:25:09.407Z,1.67
2023-01-27T21:27:59.009Z,1.21
2023-01-27T21:30:41.021Z,0.86
2023-01-27T21:33:28.807Z,0.59
2023-01-27T21:36:10.622Z,0.69
2023-01-27T21:39:00.787Z,3.29
2023-01-27T21:41:58.160Z,5.34
2023-01-27T21:45:04.008Z,4.37
2023-01-27T21:47:44.973Z,3.01
2023-01-27T21:50:27.110Z,2.16
2023-01-27T21:53:15.779Z,1.63
2023-01-27T21:55:57.179Z,1.19
2023-01-27T21:58:44.025Z,1.04
2023-01-27T22:01:31.734Z,3.46
2023-01-27T22:04:16.837Z,5.64
2023-01-27T22:07:05.461Z,5.23
2023-01-27T22:09:53.024Z,3.76
2023-01-27T22:12:49.736Z,2.63
2023-01-27T22:15:36.419Z,1.91
2023-01-27T22:18:39.233Z,1.31
2023-01-27T22:21:16.489Z,0.91
2023-01-27T22:24:05.795Z,1.96
2023-01-27T22:27:01.969Z,4.48
2023-01-27T22:29:51.728Z,4.20
2023-01-27T22:32:27.050Z,2.95
2023-01-27T22:35:17.344Z,2.14
2023-01-27T22:37:53.273Z,1.53
2023-01-27T22:40:40.980Z,1.08
2023-01-27T22:43:16.108Z,1.43
2023-01-27T22:46:08.856Z,4.09
2023-01-27T22:48:56.769Z,5.34
2023-01-27T22:51:31.192Z,4.11
2023-01-27T22:54:18.831Z,2.98
2023-01-27T22:56:53.194Z,2.23
2023-01-27T22:59:44.768Z,1.69
2023-01-27T23:02:19.488Z,1.28
2023-01-27T23:05:09.777Z,0.93
2023-01-27T23:07:44.286Z,1.22
2023-01-27T23:10:33.984Z,3.72
2023-01-27T23:13:10.176Z,5.68
2023-01-27T23:15:57.975Z,4.87
2023-01-27T23:18:52.762Z,3.47
2023-01-27T23:21:40.742Z,2.51
2023-01-27T23:24:22.987Z,1.85
2023-01-27T23:27:11.764Z,1.33
2023-01-27T23:29:53.770Z,0.93
2023-01-27T23:32:49.762Z,1.23
2023-01-27T23:35:37.749Z,4.08
2023-01-27T23:38:26.339Z,5.43
2023-01-27T23:41:24.751Z,4.26
2023-01-27T23:44:07.773Z,3.13
2023-01-27T23:46:56.767Z,2.32
2023-01-27T23:49:37.886Z,1.75
2023-01-27T23:52:18.768Z,1.36
2023-01-27T23:54:59.891Z,0.98
2023-01-27T23:57:40.763Z,1.35
